sensor_id;sensor_type;location;lat;lon;timestamp;pressure;altitude;pressure_sealevel;temperature;humidity
21300;BME280;10809;49.476;11.016;2023-06-14T00:02:32;97853.19;;;20.83;29.23
21300;BME280;10809;49.476;11.016;2023-06-14T00:05:04;97848.13;;;20.80;29.18
21300;BME280;10809;49.476;11.016;2023-06-14T00:07:38;97850.44;;;20.75;29.42
21300;BME280;10809;49.476;11.016;2023-06-14T00:10:20;97858.81;;;20.72;29.12
21300;BME280;10809;49.476;11.016;2023-06-14T00:12:53;97856.44;;;20.69;29.47
21300;BME280;10809;49.476;11.016;2023-06-14T00:15:30;97860.47;;;20.65;29.32
21300;BME280;10809;49.476;11.016;2023-06-14T00:18:03;97851.88;;;20.62;29.50
21300;BME280;10809;49.476;11.016;2023-06-14T00:20:37;97855.03;;;20.57;29.53
21300;BME280;10809;49.476;11.016;2023-06-14T00:23:09;97848.94;;;20.55;29.65
21300;BME280;10809;49.476;11.016;2023-06-14T00:25:43;97848.41;;;20.52;29.75
21300;BME280;10809;49.476;11.016;2023-06-14T00:28:26;97848.91;;;20.47;29.75
21300;BME280;10809;49.476;11.016;2023-06-14T00:30:57;97842.16;;;20.43;29.78
21300;BME280;10809;49.476;11.016;2023-06-14T00:33:28;97839.78;;;20.40;29.92
21300;BME280;10809;49.476;11.016;2023-06-14T00:36:14;97836.72;;;20.35;29.81
21300;BME280;10809;49.476;11.016;2023-06-14T00:38:56;97836.34;;;20.30;30.04
21300;BME280;10809;49.476;11.016;2023-06-14T00:41:28;97833.13;;;20.27;30.02
21300;BME280;10809;49.476;11.016;2023-06-14T00:43:59;97830.88;;;20.22;30.00
21300;BME280;10809;49.476;11.016;2023-06-14T00:46:30;97829.66;;;20.17;29.95
21300;BME280;10809;49.476;11.016;2023-06-14T00:49:02;97832.84;;;20.12;30.13
21300;BME280;10809;49.476;11.016;2023-06-14T00:51:34;97835.13;;;20.07;30.07
21300;BME280;10809;49.476;11.016;2023-06-14T00:54:09;97842.81;;;20.02;30.20
21300;BME280;10809;49.476;11.016;2023-06-14T00:56:43;97837.03;;;19.97;30.35
21300;BME280;10809;49.476;11.016;2023-06-14T00:59:18;97850.13;;;19.92;30.38
21300;BME280;10809;49.476;11.016;2023-06-14T01:01:50;97854.09;;;19.88;30.47
21300;BME280;10809;49.476;11.016;2023-06-14T01:04:21;97848.53;;;19.82;30.39
21300;BME280;10809;49.476;11.016;2023-06-14T01:07:05;97855.31;;;19.76;30.48
21300;BME280;10809;49.476;11.016;2023-06-14T01:15:26;97855.19;;;19.60;30.75
21300;BME280;10809;49.476;11.016;2023-06-14T01:18:03;97852.94;;;19.55;30.71
21300;BME280;10809;49.476;11.016;2023-06-14T01:20:36;97845.34;;;19.51;30.81
21300;BME280;10809;49.476;11.016;2023-06-14T01:23:12;97852.13;;;19.45;30.79
21300;BME280;10809;49.476;11.016;2023-06-14T01:25:42;97855.97;;;19.43;30.96
21300;BME280;10809;49.476;11.016;2023-06-14T01:28:20;97850.91;;;19.40;30.77
21300;BME280;10809;49.476;11.016;2023-06-14T01:30:55;97860.13;;;19.37;31.07
21300;BME280;10809;49.476;11.016;2023-06-14T01:33:28;97851.50;;;19.34;30.94
21300;BME280;10809;49.476;11.016;2023-06-14T01:36:09;97858.84;;;19.32;31.08
21300;BME280;10809;49.476;11.016;2023-06-14T01:38:46;97858.19;;;19.30;31.10
21300;BME280;10809;49.476;11.016;2023-06-14T01:41:22;97853.09;;;19.27;31.37
21300;BME280;10809;49.476;11.016;2023-06-14T01:44:01;97856.91;;;19.24;31.52
21300;BME280;10809;49.476;11.016;2023-06-14T01:46:36;97857.22;;;19.21;31.69
21300;BME280;10809;49.476;11.016;2023-06-14T01:49:08;97854.84;;;19.18;31.76
21300;BME280;10809;49.476;11.016;2023-06-14T01:51:43;97857.00;;;19.15;31.66
21300;BME280;10809;49.476;11.016;2023-06-14T01:54:15;97857.28;;;19.12;31.78
21300;BME280;10809;49.476;11.016;2023-06-14T01:56:46;97852.22;;;19.09;31.88
21300;BME280;10809;49.476;11.016;2023-06-14T01:59:17;97857.84;;;19.06;31.89
21300;BME280;10809;49.476;11.016;2023-06-14T02:01:49;97851.97;;;19.02;32.15
21300;BME280;10809;49.476;11.016;2023-06-14T02:04:21;97863.97;;;18.98;32.11
21300;BME280;10809;49.476;11.016;2023-06-14T02:06:54;97858.06;;;18.95;32.13
21300;BME280;10809;49.476;11.016;2023-06-14T02:09:26;97860.19;;;18.91;32.03
21300;BME280;10809;49.476;11.016;2023-06-14T02:11:59;97862.31;;;18.88;32.21
21300;BME280;10809;49.476;11.016;2023-06-14T02:14:34;97855.56;;;18.84;32.15
21300;BME280;10809;49.476;11.016;2023-06-14T02:17:07;97862.91;;;18.82;32.12
21300;BME280;10809;49.476;11.016;2023-06-14T02:19:39;97856.03;;;18.79;32.06
21300;BME280;10809;49.476;11.016;2023-06-14T02:22:15;97855.31;;;18.77;32.28
21300;BME280;10809;49.476;11.016;2023-06-14T02:24:47;97859.13;;;18.75;32.06
21300;BME280;10809;49.476;11.016;2023-06-14T02:27:22;97854.75;;;18.74;32.08
21300;BME280;10809;49.476;11.016;2023-06-14T02:29:57;97856.56;;;18.73;32.21
21300;BME280;10809;49.476;11.016;2023-06-14T02:32:29;97854.91;;;18.72;32.26
21300;BME280;10809;49.476;11.016;2023-06-14T02:35:03;97863.66;;;18.74;32.34
21300;BME280;10809;49.476;11.016;2023-06-14T02:37:36;97861.81;;;18.75;32.40
21300;BME280;10809;49.476;11.016;2023-06-14T02:40:08;97861.81;;;18.75;32.34
21300;BME280;10809;49.476;11.016;2023-06-14T02:42:39;97873.25;;;18.77;32.51
21300;BME280;10809;49.476;11.016;2023-06-14T02:45:10;97873.41;;;18.75;32.49
21300;BME280;10809;49.476;11.016;2023-06-14T02:47:41;97873.41;;;18.75;32.56
21300;BME280;10809;49.476;11.016;2023-06-14T02:50:13;97872.81;;;18.72;32.45
21300;BME280;10809;49.476;11.016;2023-06-14T02:52:48;97876.78;;;18.68;32.56
21300;BME280;10809;49.476;11.016;2023-06-14T02:55:20;97873.69;;;18.63;32.58
21300;BME280;10809;49.476;11.016;2023-06-14T02:58:01;97872.56;;;18.56;32.51
21300;BME280;10809;49.476;11.016;2023-06-14T03:00:33;97878.38;;;18.51;32.65
21300;BME280;10809;49.476;11.016;2023-06-14T03:03:06;97884.31;;;18.45;32.80
21300;BME280;10809;49.476;11.016;2023-06-14T03:05:47;97888.41;;;18.40;32.90
21300;BME280;10809;49.476;11.016;2023-06-14T03:08:23;97889.00;;;18.34;33.05
21300;BME280;10809;49.476;11.016;2023-06-14T03:11:05;97890.44;;;18.28;33.02
21300;BME280;10809;49.476;11.016;2023-06-14T03:13:37;97890.84;;;18.24;33.13
21300;BME280;10809;49.476;11.016;2023-06-14T03:16:13;97893.81;;;18.21;33.12
21300;BME280;10809;49.476;11.016;2023-06-14T03:18:46;97894.09;;;18.18;33.37
21300;BME280;10809;49.476;11.016;2023-06-14T03:21:21;97892.69;;;18.13;33.61
21300;BME280;10809;49.476;11.016;2023-06-14T03:24:00;97895.66;;;18.10;33.35
21300;BME280;10809;49.476;11.016;2023-06-14T03:26:35;97903.97;;;18.07;33.52
21300;BME280;10809;49.476;11.016;2023-06-14T03:29:08;97894.53;;;18.03;33.71
21300;BME280;10809;49.476;11.016;2023-06-14T03:32:17;97912.72;;;18.00;33.44
21300;BME280;10809;49.476;11.016;2023-06-14T03:34:49;97903.97;;;17.98;33.62
21300;BME280;10809;49.476;11.016;2023-06-14T03:37:31;97904.25;;;17.95;33.68
21300;BME280;10809;49.476;11.016;2023-06-14T03:40:03;97905.34;;;17.92;33.75
21300;BME280;10809;49.476;11.016;2023-06-14T03:42:40;97908.16;;;17.91;33.84
21300;BME280;10809;49.476;11.016;2023-06-14T03:45:12;97908.59;;;17.86;34.32
21300;BME280;10809;49.476;11.016;2023-06-14T03:47:45;97921.25;;;17.84;34.28
21300;BME280;10809;49.476;11.016;2023-06-14T03:50:17;97925.06;;;17.82;34.30
21300;BME280;10809;49.476;11.016;2023-06-14T03:52:50;97930.84;;;17.77;34.55
21300;BME280;10809;49.476;11.016;2023-06-14T03:55:26;97928.44;;;17.74;34.56
21300;BME280;10809;49.476;11.016;2023-06-14T03:58:04;97937.75;;;17.70;34.59
21300;BME280;10809;49.476;11.016;2023-06-14T04:00:36;97930.84;;;17.68;34.66
21300;BME280;10809;49.476;11.016;2023-06-14T04:03:07;97949.03;;;17.64;34.68
21300;BME280;10809;49.476;11.016;2023-06-14T04:05:40;97952.94;;;17.60;34.80
21300;BME280;10809;49.476;11.016;2023-06-14T04:08:13;97940.56;;;17.59;34.96
21300;BME280;10809;49.476;11.016;2023-06-14T04:10:45;97948.84;;;17.56;34.80
21300;BME280;10809;49.476;11.016;2023-06-14T04:13:16;97946.19;;;17.56;35.10
21300;BME280;10809;49.476;11.016;2023-06-14T04:15:49;97945.31;;;17.56;34.89
21300;BME280;10809;49.476;11.016;2023-06-14T04:18:32;97951.53;;;17.56;34.94
21300;BME280;10809;49.476;11.016;2023-06-14T04:21:04;97952.38;;;17.57;35.29
21300;BME280;10809;49.476;11.016;2023-06-14T04:23:40;97952.25;;;17.58;34.97
21300;BME280;10809;49.476;11.016;2023-06-14T04:26:17;97955.63;;;17.60;35.26
21300;BME280;10809;49.476;11.016;2023-06-14T04:28:50;97952.94;;;17.60;35.07
21300;BME280;10809;49.476;11.016;2023-06-14T04:31:25;97952.13;;;17.60;35.32
21300;BME280;10809;49.476;11.016;2023-06-14T04:34:00;97954.78;;;17.60;35.32
21300;BME280;10809;49.476;11.016;2023-06-14T04:36:35;97954.66;;;17.61;35.22
21300;BME280;10809;49.476;11.016;2023-06-14T04:39:10;97963.38;;;17.63;35.25
21300;BME280;10809;49.476;11.016;2023-06-14T04:41:48;97959.75;;;17.64;35.26
21300;BME280;10809;49.476;11.016;2023-06-14T04:44:26;97957.75;;;17.66;35.28
21300;BME280;10809;49.476;11.016;2023-06-14T04:47:02;97959.47;;;17.67;35.10
21300;BME280;10809;49.476;11.016;2023-06-14T04:49:43;97969.19;;;17.68;35.21
21300;BME280;10809;49.476;11.016;2023-06-14T04:52:19;97968.19;;;17.69;35.05
21300;BME280;10809;49.476;11.016;2023-06-14T04:54:52;97967.22;;;17.70;35.05
21300;BME280;10809;49.476;11.016;2023-06-14T04:57:26;97968.91;;;17.71;35.28
21300;BME280;10809;49.476;11.016;2023-06-14T05:00:01;97974.13;;;17.73;35.18
21300;BME280;10809;49.476;11.016;2023-06-14T05:02:43;97976.94;;;17.71;34.98
21300;BME280;10809;49.476;11.016;2023-06-14T05:05:15;97983.16;;;17.72;34.98
21300;BME280;10809;49.476;11.016;2023-06-14T05:07:51;97974.53;;;17.68;35.17
21300;BME280;10809;49.476;11.016;2023-06-14T05:10:38;97977.34;;;17.67;35.37
21300;BME280;10809;49.476;11.016;2023-06-14T05:13:10;97981.72;;;17.68;35.35
21300;BME280;10809;49.476;11.016;2023-06-14T05:15:42;97981.03;;;17.66;35.55
21300;BME280;10809;49.476;11.016;2023-06-14T05:18:20;97971.28;;;17.65;35.34
21300;BME280;10809;49.476;11.016;2023-06-14T05:20:51;97977.34;;;17.67;35.51
21300;BME280;10809;49.476;11.016;2023-06-14T05:23:25;97980.88;;;17.67;35.69
21300;BME280;10809;49.476;11.016;2023-06-14T05:26:00;97980.75;;;17.69;35.69
21300;BME280;10809;49.476;11.016;2023-06-14T05:28:33;97985.09;;;17.70;35.80
21300;BME280;10809;49.476;11.016;2023-06-14T05:31:03;97993.00;;;17.71;36.05
21300;BME280;10809;49.476;11.016;2023-06-14T05:33:34;97993.00;;;17.71;36.31
21300;BME280;10809;49.476;11.016;2023-06-14T05:36:05;97994.69;;;17.72;36.00
21300;BME280;10809;49.476;11.016;2023-06-14T05:38:37;97998.09;;;17.74;35.84
21300;BME280;10809;49.476;11.016;2023-06-14T05:41:08;97996.25;;;17.75;35.98
21300;BME280;10809;49.476;11.016;2023-06-14T05:43:41;97993.44;;;17.76;36.11
21300;BME280;10809;49.476;11.016;2023-06-14T05:46:12;98002.16;;;17.78;36.20
21300;BME280;10809;49.476;11.016;2023-06-14T05:48:43;98008.25;;;17.80;36.17
21300;BME280;10809;49.476;11.016;2023-06-14T05:51:15;97991.91;;;17.83;36.38
21300;BME280;10809;49.476;11.016;2023-06-14T05:53:50;97996.97;;;17.86;36.45
21300;BME280;10809;49.476;11.016;2023-06-14T05:56:21;97998.38;;;17.90;36.48
21300;BME280;10809;49.476;11.016;2023-06-14T05:58:56;97997.16;;;17.94;36.48
21300;BME280;10809;49.476;11.016;2023-06-14T06:01:45;98000.28;;;17.99;36.43
21300;BME280;10809;49.476;11.016;2023-06-14T06:04:18;98000.72;;;18.04;36.65
21300;BME280;10809;49.476;11.016;2023-06-14T06:06:50;98002.84;;;18.10;36.80
21300;BME280;10809;49.476;11.016;2023-06-14T06:09:24;98007.63;;;18.17;36.84
21300;BME280;10809;49.476;11.016;2023-06-14T06:11:56;98006.94;;;18.34;37.47
21300;BME280;10809;49.476;11.016;2023-06-14T06:14:33;97990.84;;;18.62;37.70
21300;BME280;10809;49.476;11.016;2023-06-14T06:17:04;97996.03;;;19.02;38.08
21300;BME280;10809;49.476;11.016;2023-06-14T06:19:41;97994.75;;;19.52;37.61
21300;BME280;10809;49.476;11.016;2023-06-14T06:22:13;98001.69;;;19.99;37.71
21300;BME280;10809;49.476;11.016;2023-06-14T06:24:50;97999.22;;;20.50;37.07
21300;BME280;10809;49.476;11.016;2023-06-14T06:27:20;97993.16;;;20.91;36.80
21300;BME280;10809;49.476;11.016;2023-06-14T06:29:51;98003.56;;;21.29;36.10
21300;BME280;10809;49.476;11.016;2023-06-14T06:32:22;98008.97;;;21.63;36.08
21300;BME280;10809;49.476;11.016;2023-06-14T06:34:53;98007.63;;;21.93;35.51
21300;BME280;10809;49.476;11.016;2023-06-14T06:37:25;98003.44;;;22.14;34.93
21300;BME280;10809;49.476;11.016;2023-06-14T06:40:01;98008.03;;;22.30;34.58
21300;BME280;10809;49.476;11.016;2023-06-14T06:42:35;98008.09;;;22.38;34.92
21300;BME280;10809;49.476;11.016;2023-06-14T06:45:09;98010.13;;;22.44;34.67
21300;BME280;10809;49.476;11.016;2023-06-14T06:47:40;98000.00;;;22.46;34.24
21300;BME280;10809;49.476;11.016;2023-06-14T06:50:14;98007.44;;;22.52;34.30
21300;BME280;10809;49.476;11.016;2023-06-14T06:52:55;98005.56;;;22.60;34.76
21300;BME280;10809;49.476;11.016;2023-06-14T06:55:29;98004.75;;;22.68;34.70
21300;BME280;10809;49.476;11.016;2023-06-14T06:58:00;98012.84;;;22.76;34.68
21300;BME280;10809;49.476;11.016;2023-06-14T07:00:32;98013.84;;;22.83;34.94
21300;BME280;10809;49.476;11.016;2023-06-14T07:03:02;98009.47;;;22.90;34.67
21300;BME280;10809;49.476;11.016;2023-06-14T07:05:34;98009.44;;;22.98;34.65
21300;BME280;10809;49.476;11.016;2023-06-14T07:08:05;98009.66;;;23.04;34.83
21300;BME280;10809;49.476;11.016;2023-06-14T07:10:36;98005.41;;;23.10;34.82
21300;BME280;10809;49.476;11.016;2023-06-14T07:13:12;98007.44;;;23.16;34.19
21300;BME280;10809;49.476;11.016;2023-06-14T07:15:44;98009.66;;;23.21;34.56
21300;BME280;10809;49.476;11.016;2023-06-14T07:18:15;98011.84;;;23.25;34.45
21300;BME280;10809;49.476;11.016;2023-06-14T07:20:47;98004.03;;;23.30;34.21
21300;BME280;10809;49.476;11.016;2023-06-14T07:23:18;98005.88;;;23.38;34.38
21300;BME280;10809;49.476;11.016;2023-06-14T07:25:49;98010.94;;;23.41;33.86
21300;BME280;10809;49.476;11.016;2023-06-14T07:28:20;98015.00;;;23.45;33.85
21300;BME280;10809;49.476;11.016;2023-06-14T07:30:51;98021.06;;;23.47;33.82
21300;BME280;10809;49.476;11.016;2023-06-14T07:33:23;98019.88;;;23.49;33.42
21300;BME280;10809;49.476;11.016;2023-06-14T07:36:04;98019.72;;;23.51;33.89
21300;BME280;10809;49.476;11.016;2023-06-14T07:38:53;98017.66;;;23.53;33.59
21300;BME280;10809;49.476;11.016;2023-06-14T07:41:34;98021.22;;;23.53;33.72
21300;BME280;10809;49.476;11.016;2023-06-14T07:44:05;98023.25;;;23.51;33.58
21300;BME280;10809;49.476;11.016;2023-06-14T07:46:36;98019.38;;;23.46;33.27
21300;BME280;10809;49.476;11.016;2023-06-14T07:49:07;98033.41;;;23.41;33.31
21300;BME280;10809;49.476;11.016;2023-06-14T07:51:44;98020.06;;;23.40;33.41
21300;BME280;10809;49.476;11.016;2023-06-14T07:54:16;98028.00;;;23.41;33.64
21300;BME280;10809;49.476;11.016;2023-06-14T07:56:57;98023.59;;;23.48;33.68
21300;BME280;10809;49.476;11.016;2023-06-14T07:59:43;98027.13;;;23.57;33.69
21300;BME280;10809;49.476;11.016;2023-06-14T08:02:22;98024.59;;;23.63;33.48
21300;BME280;10809;49.476;11.016;2023-06-14T08:04:58;98029.16;;;23.71;33.42
21300;BME280;10809;49.476;11.016;2023-06-14T08:07:30;98030.97;;;23.78;33.15
21300;BME280;10809;49.476;11.016;2023-06-14T08:10:10;98034.50;;;23.87;33.26
21300;BME280;10809;49.476;11.016;2023-06-14T08:12:44;98030.56;;;23.97;33.54
21300;BME280;10809;49.476;11.016;2023-06-14T08:15:16;98029.16;;;24.09;33.58
21300;BME280;10809;49.476;11.016;2023-06-14T08:17:47;98034.84;;;24.22;33.07
21300;BME280;10809;49.476;11.016;2023-06-14T08:20:18;98026.34;;;24.33;32.69
21300;BME280;10809;49.476;11.016;2023-06-14T08:22:49;98037.97;;;24.42;32.59
21300;BME280;10809;49.476;11.016;2023-06-14T08:25:21;98032.84;;;24.47;32.75
21300;BME280;10809;49.476;11.016;2023-06-14T08:27:54;98037.34;;;24.54;32.55
21300;BME280;10809;49.476;11.016;2023-06-14T08:30:28;98037.31;;;24.62;32.40
21300;BME280;10809;49.476;11.016;2023-06-14T08:33:06;98030.81;;;24.71;32.48
21300;BME280;10809;49.476;11.016;2023-06-14T08:35:41;98040.56;;;24.80;32.14
21300;BME280;10809;49.476;11.016;2023-06-14T08:38:13;98035.13;;;24.89;32.20
21300;BME280;10809;49.476;11.016;2023-06-14T08:40:52;98034.22;;;24.96;32.20
21300;BME280;10809;49.476;11.016;2023-06-14T08:43:27;98033.97;;;25.06;31.94
21300;BME280;10809;49.476;11.016;2023-06-14T08:46:00;98043.22;;;25.11;31.73
21300;BME280;10809;49.476;11.016;2023-06-14T08:48:34;98042.69;;;25.16;31.62
21300;BME280;10809;49.476;11.016;2023-06-14T08:51:20;98040.44;;;25.19;31.87
21300;BME280;10809;49.476;11.016;2023-06-14T08:53:56;98038.56;;;25.20;31.44
21300;BME280;10809;49.476;11.016;2023-06-14T08:56:44;98037.94;;;25.18;31.59
21300;BME280;10809;49.476;11.016;2023-06-14T08:59:26;98035.78;;;25.13;31.33
21300;BME280;10809;49.476;11.016;2023-06-14T09:01:58;98035.28;;;25.10;31.14
21300;BME280;10809;49.476;11.016;2023-06-14T09:04:31;98038.72;;;25.04;31.25
21300;BME280;10809;49.476;11.016;2023-06-14T09:07:11;98034.22;;;24.96;31.35
21300;BME280;10809;49.476;11.016;2023-06-14T09:09:47;98034.75;;;24.92;31.32
21300;BME280;10809;49.476;11.016;2023-06-14T09:12:19;98033.44;;;24.88;31.36
21300;BME280;10809;49.476;11.016;2023-06-14T09:14:54;98034.44;;;24.87;31.08
21300;BME280;10809;49.476;11.016;2023-06-14T09:17:26;98033.97;;;24.83;31.02
21300;BME280;10809;49.476;11.016;2023-06-14T09:19:59;98033.47;;;24.79;31.30
21300;BME280;10809;49.476;11.016;2023-06-14T09:22:32;98051.75;;;24.77;31.00
21300;BME280;10809;49.476;11.016;2023-06-14T09:25:06;98055.19;;;24.71;30.93
21300;BME280;10809;49.476;11.016;2023-06-14T09:27:46;98047.28;;;24.62;30.83
21300;BME280;10809;49.476;11.016;2023-06-14T09:30:20;98047.38;;;24.54;30.96
21300;BME280;10809;49.476;11.016;2023-06-14T09:32:53;98043.31;;;24.50;31.12
21300;BME280;10809;49.476;11.016;2023-06-14T09:35:26;98043.84;;;24.45;30.82
21300;BME280;10809;49.476;11.016;2023-06-14T09:38:06;98043.75;;;24.39;31.01
21300;BME280;10809;49.476;11.016;2023-06-14T09:40:38;98047.00;;;24.34;31.08
21300;BME280;10809;49.476;11.016;2023-06-14T09:43:10;98047.16;;;24.33;31.19
21300;BME280;10809;49.476;11.016;2023-06-14T09:45:43;98042.22;;;24.36;31.32
21300;BME280;10809;49.476;11.016;2023-06-14T09:48:20;98048.63;;;24.43;31.57
21300;BME280;10809;49.476;11.016;2023-06-14T09:50:55;98046.69;;;24.52;31.30
21300;BME280;10809;49.476;11.016;2023-06-14T09:53:30;98051.22;;;24.59;31.16
21300;BME280;10809;49.476;11.016;2023-06-14T09:56:07;98050.31;;;24.67;31.04
21300;BME280;10809;49.476;11.016;2023-06-14T09:58:39;98046.72;;;24.74;31.19
21300;BME280;10809;49.476;11.016;2023-06-14T10:01:12;98040.88;;;24.86;31.33
21300;BME280;10809;49.476;11.016;2023-06-14T10:04:01;98035.88;;;24.97;31.22
21300;BME280;10809;49.476;11.016;2023-06-14T10:06:41;98037.63;;;25.13;31.23
21300;BME280;10809;49.476;11.016;2023-06-14T10:09:25;98032.25;;;25.27;30.79
21300;BME280;10809;49.476;11.016;2023-06-14T10:11:57;98033.66;;;25.38;30.57
21300;BME280;10809;49.476;11.016;2023-06-14T10:14:29;98031.03;;;25.44;30.58
21300;BME280;10809;49.476;11.016;2023-06-14T10:17:10;98042.59;;;25.46;30.28
21300;BME280;10809;49.476;11.016;2023-06-14T10:20:23;98037.00;;;25.40;30.08
21300;BME280;10809;49.476;11.016;2023-06-14T10:23:12;98038.88;;;25.25;30.04
21300;BME280;10809;49.476;11.016;2023-06-14T10:25:44;98048.66;;;25.11;29.40
21300;BME280;10809;49.476;11.016;2023-06-14T10:28:20;98038.59;;;24.97;29.71
21300;BME280;10809;49.476;11.016;2023-06-14T10:31:10;98044.63;;;24.85;30.04
21300;BME280;10809;49.476;11.016;2023-06-14T10:33:58;98050.09;;;24.76;30.08
21300;BME280;10809;49.476;11.016;2023-06-14T10:36:29;98050.44;;;24.73;30.07
21300;BME280;10809;49.476;11.016;2023-06-14T10:39:18;98045.88;;;24.74;30.40
21300;BME280;10809;49.476;11.016;2023-06-14T10:41:52;98042.63;;;24.78;30.41
21300;BME280;10809;49.476;11.016;2023-06-14T10:44:35;98041.91;;;24.85;30.14
21300;BME280;10809;49.476;11.016;2023-06-14T10:47:31;98038.13;;;24.94;30.10
21300;BME280;10809;49.476;11.016;2023-06-14T10:50:11;98046.00;;;25.03;30.21
21300;BME280;10809;49.476;11.016;2023-06-14T10:52:43;98037.63;;;25.13;30.11
21300;BME280;10809;49.476;11.016;2023-06-14T10:55:17;98039.41;;;25.20;29.74
21300;BME280;10809;49.476;11.016;2023-06-14T10:57:55;98036.81;;;25.27;29.73
21300;BME280;10809;49.476;11.016;2023-06-14T11:00:29;98027.94;;;25.33;29.46
21300;BME280;10809;49.476;11.016;2023-06-14T11:06:13;98031.16;;;25.36;29.47
21300;BME280;10809;49.476;11.016;2023-06-14T11:11:14;98032.16;;;25.35;29.01
21300;BME280;10809;49.476;11.016;2023-06-14T11:13:45;98033.19;;;25.34;28.88
21300;BME280;10809;49.476;11.016;2023-06-14T11:16:17;98031.69;;;25.32;29.07
21300;BME280;10809;49.476;11.016;2023-06-14T11:18:52;98023.94;;;25.29;28.90
21300;BME280;10809;49.476;11.016;2023-06-14T11:21:23;98027.03;;;25.26;29.23
21300;BME280;10809;49.476;11.016;2023-06-14T11:23:55;98028.03;;;25.25;29.19
21300;BME280;10809;49.476;11.016;2023-06-14T11:26:40;98019.72;;;25.26;29.30
21300;BME280;10809;49.476;11.016;2023-06-14T11:29:10;98030.00;;;25.31;28.91
21300;BME280;10809;49.476;11.016;2023-06-14T11:31:59;98023.56;;;25.32;29.13
21300;BME280;10809;49.476;11.016;2023-06-14T11:34:30;98022.72;;;25.31;28.76
21300;BME280;10809;49.476;11.016;2023-06-14T11:37:01;98029.72;;;25.26;28.42
21300;BME280;10809;49.476;11.016;2023-06-14T11:39:31;98029.44;;;25.21;28.87
21300;BME280;10809;49.476;11.016;2023-06-14T11:42:02;98024.94;;;25.13;28.30
21300;BME280;10809;49.476;11.016;2023-06-14T11:44:33;98034.97;;;25.05;28.68
21300;BME280;10809;49.476;11.016;2023-06-14T11:47:07;98027.94;;;24.96;28.73
21300;BME280;10809;49.476;11.016;2023-06-14T11:49:38;98027.66;;;24.91;28.78
21300;BME280;10809;49.476;11.016;2023-06-14T11:52:08;98025.16;;;24.89;28.94
21300;BME280;10809;49.476;11.016;2023-06-14T11:54:39;98027.00;;;24.89;28.96
21300;BME280;10809;49.476;11.016;2023-06-14T11:57:14;98024.09;;;24.90;28.69
21300;BME280;10809;49.476;11.016;2023-06-14T11:59:45;98029.34;;;24.92;28.91
21300;BME280;10809;49.476;11.016;2023-06-14T12:02:16;98026.63;;;24.92;29.08
21300;BME280;10809;49.476;11.016;2023-06-14T12:04:47;98021.88;;;24.94;29.12
21300;BME280;10809;49.476;11.016;2023-06-14T12:07:21;98023.38;;;24.96;28.79
21300;BME280;10809;49.476;11.016;2023-06-14T12:12:28;98016.56;;;25.00;28.90
21300;BME280;10809;49.476;11.016;2023-06-14T12:15:07;98008.44;;;25.00;28.69
21300;BME280;10809;49.476;11.016;2023-06-14T12:17:38;98008.25;;;25.02;28.95
21300;BME280;10809;49.476;11.016;2023-06-14T12:20:13;98008.06;;;25.03;28.98
21300;BME280;10809;49.476;11.016;2023-06-14T12:25:34;98007.44;;;25.16;28.82
21300;BME280;10809;49.476;11.016;2023-06-14T12:28:07;98006.53;;;25.23;28.54
21300;BME280;10809;49.476;11.016;2023-06-14T12:30:37;98002.44;;;25.27;28.58
21300;BME280;10809;49.476;11.016;2023-06-14T12:33:08;98012.72;;;25.32;28.63
21300;BME280;10809;49.476;11.016;2023-06-14T12:35:38;98011.50;;;25.34;28.51
21300;BME280;10809;49.476;11.016;2023-06-14T12:38:09;98013.84;;;25.37;28.48
21300;BME280;10809;49.476;11.016;2023-06-14T12:40:40;98010.94;;;25.39;28.11
21300;BME280;10809;49.476;11.016;2023-06-14T12:43:11;98013.47;;;25.40;28.23
21300;BME280;10809;49.476;11.016;2023-06-14T12:45:42;98013.66;;;25.39;28.08
21300;BME280;10809;49.476;11.016;2023-06-14T12:48:16;98012.34;;;25.35;27.94
21300;BME280;10809;49.476;11.016;2023-06-14T12:50:48;98012.72;;;25.32;27.78
21300;BME280;10809;49.476;11.016;2023-06-14T12:53:18;98017.00;;;25.26;27.83
21300;BME280;10809;49.476;11.016;2023-06-14T12:55:49;98019.22;;;25.23;27.75
21300;BME280;10809;49.476;11.016;2023-06-14T12:58:19;98016.69;;;25.21;27.47
21300;BME280;10809;49.476;11.016;2023-06-14T13:00:50;98028.75;;;25.19;27.89
21300;BME280;10809;49.476;11.016;2023-06-14T13:03:24;98034.53;;;25.16;27.67
21300;BME280;10809;49.476;11.016;2023-06-14T13:05:54;98029.31;;;25.14;28.04
21300;BME280;10809;49.476;11.016;2023-06-14T13:08:25;98024.44;;;25.10;27.88
21300;BME280;10809;49.476;11.016;2023-06-14T13:10:55;98027.50;;;25.07;27.81
21300;BME280;10809;49.476;11.016;2023-06-14T13:13:29;98026.22;;;25.03;27.88
21300;BME280;10809;49.476;11.016;2023-06-14T13:16:00;98022.16;;;24.99;27.76
21300;BME280;10809;49.476;11.016;2023-06-14T13:18:30;98020.84;;;24.95;27.67
21300;BME280;10809;49.476;11.016;2023-06-14T13:21:01;98023.25;;;24.90;27.62
21300;BME280;10809;49.476;11.016;2023-06-14T13:23:31;98023.75;;;24.85;27.68
21300;BME280;10809;49.476;11.016;2023-06-14T13:26:02;98024.31;;;24.80;27.96
21300;BME280;10809;49.476;11.016;2023-06-14T13:28:32;98026.38;;;24.78;27.80
21300;BME280;10809;49.476;11.016;2023-06-14T13:31:11;98029.09;;;24.78;28.21
21300;BME280;10809;49.476;11.016;2023-06-14T13:33:42;98022.63;;;24.79;27.93
21300;BME280;10809;49.476;11.016;2023-06-14T13:36:12;98030.59;;;24.81;27.86
21300;BME280;10809;49.476;11.016;2023-06-14T13:38:46;98025.34;;;24.79;27.96
21300;BME280;10809;49.476;11.016;2023-06-14T13:41:16;98022.16;;;24.76;27.76
21300;BME280;10809;49.476;11.016;2023-06-14T13:43:47;98026.44;;;24.70;27.69
21300;BME280;10809;49.476;11.016;2023-06-14T13:46:17;98018.84;;;24.66;27.72